createdAt,value
2019-05-12T00:02:02.835Z,102811.27
2019-05-12T00:04:35.117Z,102801.89
2019-05-12T00:07:08.759Z,102801.89
2019-05-12T00:09:41.143Z,102802.17
2019-05-12T00:12:13.400Z,102809.37
2019-05-12T00:14:45.687Z,102810.28
2019-05-12T00:17:18.862Z,102813.46
2019-05-12T00:19:51.402Z,102815.31
2019-05-12T00:22:23.644Z,102809.42
2019-05-12T00:24:58.292Z,102813.20
2019-05-12T00:27:29.876Z,102809.37
2019-05-12T00:30:02.148Z,102816.57
2019-05-12T00:32:34.871Z,102815.97
2019-05-12T00:35:07.859Z,102822.86
2019-05-12T00:37:40.389Z,102826.04
2019-05-12T00:40:12.604Z,102824.02
2019-05-12T00:42:44.805Z,102827.83
2019-05-12T00:45:18.096Z,102824.72
2019-05-12T00:47:50.438Z,102823.30
2019-05-12T00:50:22.697Z,102828.31
2019-05-12T00:52:54.948Z,102827.71
2019-05-12T00:55:28.964Z,102830.22
2019-05-12T00:58:01.116Z,102839.98
2019-05-12T01:00:33.327Z,102846.39
2019-05-12T01:03:08.408Z,102837.95
2019-05-12T01:05:39.492Z,102838.38
2019-05-12T01:08:11.700Z,102840.08
2019-05-12T01:10:47.800Z,102842.55
2019-05-12T01:13:19.369Z,102849.74
2019-05-12T01:15:51.613Z,102847.33
2019-05-12T01:18:23.823Z,102844.52
2019-05-12T01:20:58.267Z,102841.58
2019-05-12T01:23:29.956Z,102852.75
2019-05-12T01:26:02.155Z,102863.14
2019-05-12T01:28:34.378Z,102865.27
2019-05-12T01:31:08.579Z,102866.56
2019-05-12T01:33:40.959Z,102868.64
2019-05-12T01:36:15.511Z,102873.62
2019-05-12T01:38:48.306Z,102869.91
2019-05-12T01:41:20.639Z,102878.09
2019-05-12T01:43:52.909Z,102874.45
2019-05-12T01:46:25.139Z,102881.77
2019-05-12T01:48:59.113Z,102884.53
2019-05-12T01:51:31.398Z,102895.02
2019-05-12T01:54:13.591Z,102891.12
2019-05-12T01:56:38.262Z,102894.28
2019-05-12T01:59:10.758Z,102899.99
2019-05-12T02:01:42.962Z,102901.98
2019-05-12T02:04:15.271Z,102910.94
2019-05-12T02:06:48.568Z,102912.02
2019-05-12T02:09:20.908Z,102915.01
2019-05-12T02:11:53.143Z,102909.03
2019-05-12T02:14:27.477Z,102918.52
2019-05-12T02:16:59.289Z,102926.43
2019-05-12T02:19:31.507Z,102931.94
2019-05-12T02:22:03.755Z,102934.19
2019-05-12T02:24:36.021Z,102938.34
2019-05-12T02:27:08.363Z,102942.23
2019-05-12T02:29:40.637Z,102950.80
2019-05-12T02:32:12.883Z,102949.50
2019-05-12T02:34:45.728Z,102955.13
2019-05-12T02:37:18.146Z,102960.02
2019-05-12T02:39:50.353Z,102964.34
2019-05-12T02:42:24.382Z,102969.83
2019-05-12T02:44:56.536Z,102968.58
2019-05-12T02:47:28.753Z,102972.92
2019-05-12T02:50:00.966Z,102966.86
2019-05-12T02:52:34.893Z,102974.33
2019-05-12T02:55:07.419Z,102974.89
2019-05-12T02:57:45.037Z,102980.38
2019-05-12T03:00:16.290Z,102979.63
2019-05-12T03:02:48.510Z,102982.25
2019-05-12T03:05:20.706Z,102993.31
2019-05-12T03:07:55.233Z,102994.61
2019-05-12T03:10:26.865Z,102996.91
2019-05-12T03:12:59.084Z,103007.98
2019-05-12T03:15:31.306Z,103002.81
2019-05-12T03:18:06.172Z,103013.34
2019-05-12T03:20:37.456Z,103014.94
2019-05-12T03:23:09.714Z,103024.95
2019-05-12T03:25:45.377Z,103023.33
2019-05-12T03:28:16.349Z,103024.78
2019-05-12T03:30:49.431Z,103025.33
2019-05-12T03:33:33.602Z,103026.48
2019-05-12T03:36:00.668Z,103036.63
2019-05-12T03:38:31.693Z,103041.45
2019-05-12T03:41:05.302Z,103040.53
2019-05-12T03:43:37.938Z,103053.27
2019-05-12T03:46:10.174Z,103058.61
2019-05-12T03:48:45.421Z,103059.95
2019-05-12T03:51:16.371Z,103057.76
2019-05-12T03:53:48.633Z,103065.44
2019-05-12T03:56:20.854Z,103062.31
2019-05-12T03:58:54.096Z,103069.86
2019-05-12T04:01:26.502Z,103072.84
2019-05-12T04:03:58.723Z,103079.18
2019-05-12T04:06:30.962Z,103083.49
2019-05-12T04:09:04.753Z,103089.55
2019-05-12T04:11:36.999Z,103096.03
2019-05-12T04:14:09.251Z,103097.85
2019-05-12T04:16:44.876Z,103099.39
2019-05-12T04:19:15.941Z,103103.12
2019-05-12T04:21:48.192Z,103107.63
2019-05-12T04:24:20.435Z,103112.98
2019-05-12T04:26:55.152Z,103113.16
2019-05-12T04:29:27.679Z,103118.17
2019-05-12T04:31:59.939Z,103116.95
2019-05-12T04:34:34.304Z,103118.08
2019-05-12T04:37:07.257Z,103126.12
2019-05-12T04:39:39.461Z,103129.45
2019-05-12T04:42:14.680Z,103136.02
2019-05-12T04:44:45.609Z,103130.96
2019-05-12T04:47:17.909Z,103121.41
2019-05-12T04:49:50.174Z,103125.74
2019-05-12T04:52:24.848Z,103131.98
2019-05-12T04:54:56.311Z,103134.02
2019-05-12T04:57:28.350Z,103130.79
2019-05-12T05:00:00.567Z,103134.58
2019-05-12T05:02:36.275Z,103133.94
2019-05-12T05:05:06.841Z,103130.77
2019-05-12T05:07:39.109Z,103133.06
2019-05-12T05:10:14.277Z,103138.93
2019-05-12T05:12:45.275Z,103141.12
2019-05-12T05:15:17.492Z,103147.92
2019-05-12T05:17:49.740Z,103154.38
2019-05-12T05:20:23.964Z,103158.44
2019-05-12T05:22:56.336Z,103167.61
2019-05-12T05:25:28.535Z,103170.59
2019-05-12T05:28:00.731Z,103171.76
2019-05-12T05:30:34.091Z,103176.84
2019-05-12T05:33:10.256Z,103184.03
2019-05-12T05:35:43.597Z,103182.34
2019-05-12T05:38:20.598Z,103189.13
2019-05-12T05:40:50.126Z,103192.66
2019-05-12T05:43:24.171Z,103193.09
2019-05-12T05:46:02.499Z,103197.02
2019-05-12T05:48:32.177Z,103204.33
2019-05-12T05:51:08.805Z,103202.56
2019-05-12T05:53:38.644Z,103209.75
2019-05-12T05:56:10.879Z,103215.48
2019-05-12T05:58:47.007Z,103224.10
2019-05-12T06:01:17.094Z,103220.72
2019-05-12T06:03:49.291Z,103230.58
2019-05-12T06:06:23.650Z,103223.59
2019-05-12T06:08:55.452Z,103229.28
2019-05-12T06:11:28.558Z,103231.16
2019-05-12T06:14:03.256Z,103230.75
2019-05-12T06:16:35.043Z,103233.28
2019-05-12T06:19:07.312Z,103236.81
2019-05-12T06:21:39.525Z,103236.03
2019-05-12T06:24:15.539Z,103239.52
2019-05-12T06:26:56.617Z,103243.70
2019-05-12T06:29:21.846Z,103242.02
2019-05-12T06:31:54.311Z,103249.73
2019-05-12T06:34:26.660Z,103249.14
2019-05-12T06:37:03.060Z,103258.78
2019-05-12T06:39:34.356Z,103256.89
2019-05-12T06:42:12.347Z,103258.47
2019-05-12T06:44:43.758Z,103258.19
2019-05-12T06:47:15.753Z,103253.56
2019-05-12T06:49:48.872Z,103264.83
2019-05-12T06:52:23.714Z,103267.83
2019-05-12T06:54:56.822Z,103275.34
2019-05-12T06:57:29.193Z,103281.47
2019-05-12T07:00:01.487Z,103281.58
2019-05-12T07:02:37.124Z,103286.78
2019-05-12T07:05:07.942Z,103284.88
2019-05-12T07:07:44.301Z,103297.66
2019-05-12T07:10:35.479Z,103293.11
2019-05-12T07:12:58.972Z,103300.33
2019-05-12T07:15:23.851Z,103301.15
2019-05-12T07:17:56.025Z,103297.31
2019-05-12T07:20:29.299Z,103295.28
2019-05-12T07:23:04.030Z,103298.97
2019-05-12T07:25:36.967Z,103298.34
2019-05-12T07:28:09.359Z,103302.69
2019-05-12T07:30:43.894Z,103302.75
2019-05-12T07:33:15.654Z,103309.34
2019-05-12T07:35:48.006Z,103314.34
2019-05-12T07:38:21.669Z,103311.26
2019-05-12T07:40:54.193Z,103306.58
2019-05-12T07:43:26.389Z,103311.64
2019-05-12T07:46:02.524Z,103316.94
2019-05-12T07:48:33.437Z,103313.68
2019-05-12T07:51:06.280Z,103320.46
2019-05-12T07:53:38.490Z,103315.30
2019-05-12T07:56:10.708Z,103324.94
2019-05-12T07:58:47.471Z,103323.52
2019-05-12T08:01:17.154Z,103321.25
2019-05-12T08:03:51.025Z,103329.50
2019-05-12T08:06:24.415Z,103326.35
2019-05-12T08:08:59.033Z,103341.27
2019-05-12T08:11:36.664Z,103343.54
2019-05-12T08:14:04.717Z,103339.26
2019-05-12T08:16:37.229Z,103337.97
2019-05-12T08:19:14.994Z,103335.14
2019-05-12T08:21:49.116Z,103337.48
2019-05-12T08:24:18.857Z,103337.67
2019-05-12T08:27:01.455Z,103349.02
2019-05-12T08:29:25.073Z,103343.30
2019-05-12T08:31:57.346Z,103338.44
2019-05-12T08:34:29.630Z,103344.25
2019-05-12T08:37:01.813Z,103347.61
2019-05-12T08:39:34.464Z,103356.53
2019-05-12T08:42:06.689Z,103357.98
2019-05-12T08:44:40.717Z,103357.53
2019-05-12T08:47:15.223Z,103354.58
2019-05-12T08:49:55.151Z,103359.28
2019-05-12T08:52:23.540Z,103358.47
2019-05-12T08:54:55.875Z,103363.27
2019-05-12T08:57:34.835Z,103364.19
2019-05-12T09:00:03.426Z,103359.47
2019-05-12T09:02:39.854Z,103361.32
2019-05-12T09:05:10.340Z,103365.33
2019-05-12T09:07:43.565Z,103371.61
2019-05-12T09:10:15.986Z,103373.58
2019-05-12T09:12:48.259Z,103375.23
2019-05-12T09:15:20.538Z,103373.56
2019-05-12T09:17:56.836Z,103373.02
2019-05-12T09:20:27.743Z,103374.30
2019-05-12T09:23:00.858Z,103377.85
2019-05-12T09:25:34.338Z,103382.34
2019-05-12T09:28:09.172Z,103379.70
2019-05-12T09:30:47.520Z,103378.39
2019-05-12T09:33:15.403Z,103386.83
2019-05-12T09:35:47.640Z,103390.16
2019-05-12T09:38:21.620Z,103395.67
2019-05-12T09:41:00.723Z,103400.40
2019-05-12T09:43:28.438Z,103403.44
2019-05-12T09:46:00.787Z,103406.77
2019-05-12T09:48:33.804Z,103413.75
2019-05-12T09:51:08.023Z,103416.25
2019-05-12T09:53:50.583Z,103409.78
2019-05-12T09:56:16.595Z,103411.75
2019-05-12T09:58:59.018Z,103415.14
2019-05-12T10:01:24.210Z,103410.80
2019-05-12T10:03:56.541Z,103415.69
2019-05-12T10:06:29.553Z,103421.09
2019-05-12T10:09:03.460Z,103419.87
2019-05-12T10:11:36.024Z,103418.88
2019-05-12T10:14:10.767Z,103410.03
2019-05-12T10:16:45.572Z,103403.52
2019-05-12T10:19:17.451Z,103417.09
2019-05-12T10:21:55.180Z,103413.39
2019-05-12T10:24:23.744Z,103417.43
2019-05-12T10:26:56.016Z,103411.11
2019-05-12T10:29:30.692Z,103422.55
2019-05-12T10:32:03.985Z,103420.23
2019-05-12T10:34:40.268Z,103423.24
2019-05-12T10:37:10.244Z,103429.23
2019-05-12T10:39:42.501Z,103452.44
2019-05-12T10:42:14.943Z,103458.78
2019-05-12T10:44:47.031Z,103459.07
2019-05-12T10:47:19.524Z,103451.55
2019-05-12T10:49:53.790Z,103453.66
2019-05-12T10:52:29.338Z,103452.58
2019-05-12T10:54:59.688Z,103454.29
2019-05-12T10:57:33.364Z,103445.39
2019-05-12T11:00:05.807Z,103445.49
2019-05-12T11:02:38.043Z,103447.42
2019-05-12T11:05:20.678Z,103444.84
2019-05-12T11:07:45.374Z,103450.21
2019-05-12T11:10:20.146Z,103449.81
2019-05-12T11:12:51.538Z,103443.27
2019-05-12T11:15:24.504Z,103431.33
2019-05-12T11:17:57.256Z,103451.78
2019-05-12T11:20:30.173Z,103441.67
2019-05-12T11:23:04.799Z,103442.12
2019-05-12T11:25:37.050Z,103439.82
2019-05-12T11:28:09.461Z,103450.06
2019-05-12T11:30:43.670Z,103445.32
2019-05-12T11:33:15.765Z,103454.45
2019-05-12T11:35:48.230Z,103454.08
2019-05-12T11:38:20.433Z,103449.83
2019-05-12T11:40:53.794Z,103451.39
2019-05-12T11:43:26.256Z,103449.03
2019-05-12T11:45:58.872Z,103450.31
2019-05-12T11:48:31.132Z,103455.19
2019-05-12T11:51:03.963Z,103454.58
2019-05-12T11:53:36.502Z,103441.11
2019-05-12T11:56:09.695Z,103453.78
2019-05-12T11:58:47.367Z,103460.11
2019-05-12T12:01:16.006Z,103466.86
2019-05-12T12:03:48.283Z,103473.19
2019-05-12T12:06:20.589Z,103477.98
2019-05-12T12:08:53.678Z,103474.94
2019-05-12T12:11:28.114Z,103473.05
2019-05-12T12:14:05.567Z,103484.33
2019-05-12T12:16:34.185Z,103482.07
2019-05-12T12:19:06.375Z,103484.48
2019-05-12T12:21:40.379Z,103486.94
2019-05-12T12:24:13.576Z,103490.70
2019-05-12T12:26:46.791Z,103490.98
2019-05-12T12:29:19.800Z,103482.10
2019-05-12T12:31:52.636Z,103486.25
2019-05-12T12:34:30.154Z,103488.67
2019-05-12T12:37:00.001Z,103490.32
2019-05-12T12:39:32.793Z,103497.27
2019-05-12T12:42:05.619Z,103502.02
2019-05-12T12:44:38.481Z,103496.30
2019-05-12T12:47:11.282Z,103506.91
2019-05-12T12:49:47.672Z,103515.05
2019-05-12T12:52:18.643Z,103507.23
2019-05-12T12:54:51.443Z,103519.30
2019-05-12T12:57:24.226Z,103524.91
2019-05-12T12:59:57.049Z,103523.28
2019-05-12T13:02:29.867Z,103516.30
2019-05-12T13:05:02.662Z,103518.88
2019-05-12T13:07:35.469Z,103526.44
2019-05-12T13:10:09.780Z,103530.74
2019-05-12T13:12:43.817Z,103523.35
2019-05-12T13:15:16.833Z,103526.30
2019-05-12T13:17:49.611Z,103536.73
2019-05-12T13:20:23.849Z,103538.59
2019-05-12T13:22:56.807Z,103536.69
2019-05-12T13:25:29.697Z,103536.69
2019-05-12T13:28:10.369Z,103535.78
2019-05-12T13:30:46.378Z,103536.91
2019-05-12T13:33:14.751Z,103552.47
2019-05-12T13:35:50.131Z,103555.73
2019-05-12T13:38:20.608Z,103557.20
2019-05-12T13:40:54.170Z,103547.56
2019-05-12T13:43:28.197Z,103548.11
2019-05-12T13:46:01.010Z,103548.11
2019-05-12T13:48:33.811Z,103561.62
2019-05-12T13:51:12.396Z,103571.31
2019-05-12T13:53:46.350Z,103570.70
2019-05-12T13:56:19.187Z,103565.22
2019-05-12T13:58:50.199Z,103565.22
2019-05-12T14:01:24.861Z,103564.80
2019-05-12T14:03:58.343Z,103570.74
2019-05-12T14:06:32.960Z,103575.21
2019-05-12T14:09:04.532Z,103561.85
2019-05-12T14:11:36.882Z,103558.60
2019-05-12T14:14:15.166Z,103567.08
2019-05-12T14:16:52.434Z,103571.91
2019-05-12T14:19:19.006Z,103572.21
2019-05-12T14:21:54.274Z,103560.67
2019-05-12T14:24:26.394Z,103566.62
2019-05-12T14:26:58.670Z,103570.38
2019-05-12T14:29:30.914Z,103565.48
2019-05-12T14:32:05.427Z,103565.52
2019-05-12T14:34:37.136Z,103563.43
2019-05-12T14:37:10.479Z,103558.63
2019-05-12T14:39:48.098Z,103560.68
2019-05-12T14:42:17.307Z,103567.84
2019-05-12T14:44:49.927Z,103569.41
2019-05-12T14:47:25.745Z,103563.31
2019-05-12T14:49:57.304Z,103563.21
2019-05-12T14:52:29.373Z,103570.60
2019-05-12T14:55:03.431Z,103570.27
2019-05-12T14:57:39.226Z,103577.20
2019-05-12T15:00:11.130Z,103580.00
2019-05-12T15:02:43.942Z,103578.60
2019-05-12T15:05:16.315Z,103569.59
2019-05-12T15:07:56.765Z,103576.95
2019-05-12T15:10:23.434Z,103569.56
2019-05-12T15:12:56.025Z,103566.14
2019-05-12T15:15:28.268Z,103583.80
2019-05-12T15:18:03.547Z,103583.67
2019-05-12T15:20:34.489Z,103578.50
2019-05-12T15:23:06.975Z,103590.45
2019-05-12T15:25:39.191Z,103581.30
2019-05-12T15:28:11.505Z,103587.31
2019-05-12T15:30:43.792Z,103592.37
2019-05-12T15:33:17.109Z,103579.83
2019-05-12T15:35:49.304Z,103588.78
2019-05-12T15:38:23.767Z,103593.14
2019-05-12T15:40:56.582Z,103594.75
2019-05-12T15:43:28.795Z,103595.45
2019-05-12T15:46:01.367Z,103597.09
2019-05-12T15:48:34.311Z,103602.84
2019-05-12T15:51:09.305Z,103598.14
2019-05-12T15:53:44.401Z,103595.19
2019-05-12T15:56:22.616Z,103601.97
2019-05-12T15:58:49.497Z,103608.17
2019-05-12T16:01:24.020Z,103609.58
2019-05-12T16:03:55.687Z,103599.41
2019-05-12T16:06:27.928Z,103612.15
2019-05-12T16:09:00.064Z,103611.89
2019-05-12T16:11:33.385Z,103617.49
2019-05-12T16:14:05.688Z,103612.19
2019-05-12T16:16:42.444Z,103622.13
2019-05-12T16:19:14.682Z,103620.40
2019-05-12T16:21:46.655Z,103618.75
2019-05-12T16:24:18.938Z,103620.81
2019-05-12T16:26:52.146Z,103625.54
2019-05-12T16:29:25.394Z,103621.05
2019-05-12T16:31:57.604Z,103628.73
2019-05-12T16:34:29.869Z,103632.09
2019-05-12T16:37:04.076Z,103633.02
2019-05-12T16:39:43.820Z,103647.13
2019-05-12T16:42:10.788Z,103646.71
2019-05-12T16:44:44.029Z,103650.63
2019-05-12T16:47:18.769Z,103636.70
2019-05-12T16:49:50.389Z,103642.59
2019-05-12T16:52:24.402Z,103660.13
2019-05-12T16:54:56.624Z,103653.94
2019-05-12T16:57:28.816Z,103657.89
2019-05-12T17:00:03.635Z,103658.52
2019-05-12T17:02:41.826Z,103662.88
2019-05-12T17:05:17.670Z,103672.34
2019-05-12T17:07:44.312Z,103671.35
2019-05-12T17:10:17.011Z,103676.50
2019-05-12T17:12:49.312Z,103674.34
2019-05-12T17:15:23.540Z,103677.02
2019-05-12T17:18:01.147Z,103678.55
2019-05-12T17:20:29.547Z,103677.15
2019-05-12T17:23:03.399Z,103680.56
2019-05-12T17:25:36.136Z,103681.84
2019-05-12T17:28:08.483Z,103685.09
2019-05-12T17:30:40.774Z,103688.79
2019-05-12T17:33:22.220Z,103688.46
2019-05-12T17:35:47.144Z,103700.87
2019-05-12T17:38:20.255Z,103700.90
2019-05-12T17:40:58.809Z,103701.63
2019-05-12T17:43:27.222Z,103702.33
2019-05-12T17:46:01.313Z,103696.53
2019-05-12T17:48:37.368Z,103704.58
2019-05-12T17:51:07.335Z,103705.63
2019-05-12T17:53:40.464Z,103692.64
2019-05-12T17:56:14.051Z,103709.20
2019-05-12T17:58:47.538Z,103714.55
2019-05-12T18:01:23.015Z,103709.16
2019-05-12T18:03:54.032Z,103716.38
2019-05-12T18:06:30.772Z,103724.59
2019-05-12T18:09:00.224Z,103726.43
2019-05-12T18:11:33.983Z,103719.92
2019-05-12T18:14:07.192Z,103716.51
2019-05-12T18:16:43.181Z,103724.67
2019-05-12T18:19:15.432Z,103720.85
2019-05-12T18:21:48.828Z,103728.84
2019-05-12T18:24:21.055Z,103737.52
2019-05-12T18:26:58.886Z,103732.96
2019-05-12T18:29:27.340Z,103736.81
2019-05-12T18:31:59.593Z,103739.62
2019-05-12T18:34:33.998Z,103741.41
2019-05-12T18:37:05.899Z,103738.98
2019-05-12T18:39:38.122Z,103753.17
2019-05-12T18:42:10.409Z,103747.02
2019-05-12T18:44:43.897Z,103743.75
2019-05-12T18:47:22.296Z,103746.35
2019-05-12T18:49:50.428Z,103746.86
2019-05-12T18:52:23.587Z,103749.84
2019-05-12T18:54:57.798Z,103748.55
2019-05-12T18:57:30.213Z,103743.11
2019-05-12T19:00:04.903Z,103753.91
2019-05-12T19:02:36.516Z,103758.28
2019-05-12T19:05:12.974Z,103758.26
2019-05-12T19:07:43.906Z,103757.92
2019-05-12T19:10:16.426Z,103768.47
2019-05-12T19:12:51.563Z,103763.22
2019-05-12T19:15:22.716Z,103765.67
2019-05-12T19:17:55.273Z,103772.96
2019-05-12T19:20:31.299Z,103772.01
2019-05-12T19:23:03.601Z,103775.72
2019-05-12T19:25:40.264Z,103773.58
2019-05-12T19:28:10.477Z,103781.86
2019-05-12T19:30:43.798Z,103781.55
2019-05-12T19:33:16.250Z,103780.29
2019-05-12T19:35:50.515Z,103774.33
2019-05-12T19:38:23.939Z,103776.89
2019-05-12T19:41:00.771Z,103788.03
2019-05-12T19:43:30.547Z,103791.59
2019-05-12T19:46:04.679Z,103790.23
2019-05-12T19:48:46.506Z,103797.71
2019-05-12T19:51:22.966Z,103792.14
2019-05-12T19:53:44.886Z,103794.83
2019-05-12T19:56:19.007Z,103796.46
2019-05-12T19:58:53.599Z,103795.19
2019-05-12T20:01:32.221Z,103795.48
2019-05-12T20:04:00.057Z,103795.66
2019-05-12T20:06:33.602Z,103800.34
2019-05-12T20:09:10.194Z,103806.25
2019-05-12T20:11:39.889Z,103805.80
2019-05-12T20:14:16.626Z,103808.05
2019-05-12T20:16:46.240Z,103807.42
2019-05-12T20:19:19.956Z,103803.38
2019-05-12T20:21:54.329Z,103801.94
2019-05-12T20:24:26.422Z,103805.72
2019-05-12T20:26:58.693Z,103808.20
2019-05-12T20:29:35.246Z,103803.56
2019-05-12T20:32:04.955Z,103806.73
2019-05-12T20:34:48.523Z,103816.66
2019-05-12T20:37:14.345Z,103811.37
2019-05-12T20:39:45.468Z,103815.44
2019-05-12T20:42:17.706Z,103808.97
2019-05-12T20:44:51.302Z,103815.36
2019-05-12T20:47:24.080Z,103817.20
2019-05-12T20:49:56.709Z,103816.44
2019-05-12T20:52:28.945Z,103823.64
2019-05-12T20:55:03.507Z,103834.11
2019-05-12T20:57:40.080Z,103825.53
2019-05-12T21:00:09.128Z,103830.75
2019-05-12T21:02:43.998Z,103833.60
2019-05-12T21:05:19.916Z,103832.20
2019-05-12T21:07:49.673Z,103827.14
2019-05-12T21:10:26.422Z,103836.75
2019-05-12T21:12:55.865Z,103833.27
2019-05-12T21:15:40.666Z,103836.90
2019-05-12T21:18:06.851Z,103841.23
2019-05-12T21:20:36.003Z,103840.85
2019-05-12T21:23:08.288Z,103836.81
2019-05-12T21:25:43.889Z,103839.31
2019-05-12T21:28:14.956Z,103836.85
2019-05-12T21:30:48.261Z,103837.23
2019-05-12T21:33:23.877Z,103836.72
2019-05-12T21:35:55.149Z,103846.51
2019-05-12T21:38:29.612Z,103840.24
2019-05-12T21:41:02.147Z,103853.03
2019-05-12T21:43:35.236Z,103849.69
2019-05-12T21:46:12.256Z,103851.62
2019-05-12T21:48:41.421Z,103845.26
2019-05-12T21:51:18.494Z,103846.84
2019-05-12T21:53:50.553Z,103851.28
2019-05-12T21:56:24.425Z,103850.47
2019-05-12T21:58:58.167Z,103849.20
2019-05-12T22:01:35.129Z,103849.84
2019-05-12T22:04:05.383Z,103851.81
2019-05-12T22:06:37.843Z,103845.83
2019-05-12T22:09:10.372Z,103853.16
2019-05-12T22:11:50.633Z,103849.25
2019-05-12T22:14:16.646Z,103862.02
2019-05-12T22:16:48.861Z,103861.13
2019-05-12T22:19:21.087Z,103858.66
2019-05-12T22:21:53.743Z,103858.42
2019-05-12T22:24:33.888Z,103860.77
2019-05-12T22:27:02.763Z,103868.05
2019-05-12T22:29:35.038Z,103862.45
2019-05-12T22:32:07.349Z,103870.78
2019-05-12T22:34:41.965Z,103869.36
2019-05-12T22:37:13.711Z,103867.81
2019-05-12T22:39:46.013Z,103874.70
2019-05-12T22:42:21.673Z,103875.89
2019-05-12T22:45:00.875Z,103875.35
2019-05-12T22:47:26.070Z,103879.77
2019-05-12T22:49:58.272Z,103881.09
2019-05-12T22:52:30.523Z,103881.20
2019-05-12T22:55:03.608Z,103878.49
2019-05-12T22:57:40.121Z,103877.96
2019-05-12T23:00:13.503Z,103874.34
2019-05-12T23:02:45.519Z,103881.22
2019-05-12T23:05:20.549Z,103885.23
2019-05-12T23:07:51.718Z,103884.84
2019-05-12T23:10:23.980Z,103898.77
2019-05-12T23:13:01.614Z,103899.04
2019-05-12T23:15:33.286Z,103896.94
2019-05-12T23:18:05.013Z,103900.98
2019-05-12T23:20:37.220Z,103902.28
2019-05-12T23:23:15.417Z,103900.47
2019-05-12T23:25:44.138Z,103899.50
2019-05-12T23:28:16.495Z,103905.89
2019-05-12T23:30:50.130Z,103903.27
2019-05-12T23:33:25.404Z,103906.67
2019-05-12T23:35:56.341Z,103908.09
2019-05-12T23:38:30.833Z,103903.42
2019-05-12T23:41:04.197Z,103902.11
2019-05-12T23:43:36.573Z,103898.98
2019-05-12T23:46:08.825Z,103890.28
2019-05-12T23:48:41.096Z,103898.47
2019-05-12T23:51:14.312Z,103903.91
2019-05-12T23:53:46.896Z,103908.99
2019-05-12T23:56:19.128Z,103907.44
2019-05-12T23:58:53.719Z,103906.75
